createdAt,value
2022-08-08T00:01:00.409Z,95294.91
2022-08-08T00:03:46.216Z,95300.97
2022-08-08T00:06:28.271Z,95303.72
2022-08-08T00:09:07.967Z,95290.53
2022-08-08T00:11:47.154Z,95292.44
2022-08-08T00:14:58.667Z,95298.75
2022-08-08T00:17:47.879Z,95298.19
2022-08-08T00:20:17.817Z,95298.47
2022-08-08T00:22:49.367Z,95297.09
2022-08-08T00:25:22.105Z,95295.72
2022-08-08T00:27:52.268Z,95302.03
2022-08-08T00:30:20.509Z,95307.25
2022-08-08T00:32:56.079Z,95306.97
2022-08-08T00:35:25.782Z,95305.91
2022-08-08T00:38:30.871Z,95299.84
2022-08-08T00:42:08.333Z,95293.78
2022-08-08T00:45:05.053Z,95294.34
2022-08-08T00:48:39.006Z,95293.78
2022-08-08T00:51:38.842Z,95292.69
2022-08-08T00:54:52.267Z,95294.06
2022-08-08T00:58:12.709Z,95294.91
2022-08-08T01:00:50.546Z,95292.16
2022-08-08T01:04:00.837Z,95288.84
2022-08-08T01:06:52.062Z,95296.81
2022-08-08T01:10:06.005Z,95287.47
2022-08-08T01:12:55.634Z,95305.59
2022-08-08T01:16:06.255Z,95291.59
2022-08-08T01:19:13.706Z,95288.59
2022-08-08T01:22:23.701Z,95294.91
2022-08-08T01:25:26.298Z,95291.34
2022-08-08T01:28:15.676Z,95291.06
2022-08-08T01:32:13.782Z,95289.13
2022-08-08T01:34:49.627Z,95289.41
2022-08-08T01:38:01.735Z,95294.34
2022-08-08T01:40:31.732Z,95294.63
2022-08-08T01:43:07.406Z,95300.91
2022-08-08T01:45:54.547Z,95300.38
2022-08-08T01:48:36.393Z,95295.69
2022-08-08T01:52:41.692Z,95292.13
2022-08-08T01:55:26.513Z,95294.88
2022-08-08T01:58:10.979Z,95295.16
2022-08-08T02:00:18.853Z,95300.09
2022-08-08T02:03:55.311Z,95296.50
2022-08-08T02:06:08.467Z,95288.81
2022-08-08T02:09:03.148Z,95295.97
2022-08-08T02:11:59.308Z,95302.53
2022-08-08T02:14:33.245Z,95300.88
2022-08-08T02:17:10.654Z,95293.72
2022-08-08T02:20:07.934Z,95298.38
2022-08-08T02:22:52.969Z,95299.44
2022-08-08T02:25:33.157Z,95304.38
2022-08-08T02:28:19.161Z,95303.28
2022-08-08T02:30:58.189Z,95304.09
2022-08-08T02:34:07.915Z,95302.97
2022-08-08T02:36:41.411Z,95300.22
2022-08-08T02:39:42.069Z,95308.69
2022-08-08T02:44:34.610Z,95313.38
2022-08-08T02:46:19.288Z,95318.84
2022-08-08T02:49:35.866Z,95315.81
2022-08-08T02:52:34.741Z,95319.66
2022-08-08T02:55:57.729Z,95320.19
2022-08-08T02:59:17.135Z,95316.66
2022-08-08T03:02:20.287Z,95313.88
2022-08-08T03:05:14.127Z,95320.44
2022-08-08T03:08:15.002Z,95314.66
2022-08-08T03:11:25.843Z,95318.22
2022-08-08T03:16:01.026Z,95322.34
2022-08-08T03:17:39.731Z,95318.22
2022-08-08T03:20:10.322Z,95319.31
2022-08-08T03:22:45.790Z,95317.38
2022-08-08T03:25:18.986Z,95318.16
2022-08-08T03:27:56.750Z,95315.94
2022-08-08T03:30:25.233Z,95312.38
2022-08-08T03:33:55.160Z,95318.66
2022-08-08T03:35:59.156Z,95315.81
2022-08-08T03:38:54.430Z,95314.91
2022-08-08T03:42:03.943Z,95313.00
2022-08-08T03:44:04.178Z,95307.50
2022-08-08T03:46:32.449Z,95321.13
2022-08-08T03:49:30.292Z,95326.63
2022-08-08T03:51:53.522Z,95321.97
2022-08-08T03:54:51.791Z,95325.03
2022-08-08T03:58:09.493Z,95332.91
2022-08-08T04:00:07.706Z,95333.97
2022-08-08T04:02:51.585Z,95339.44
2022-08-08T04:05:28.139Z,95335.31
2022-08-08T04:07:57.815Z,95330.06
2022-08-08T04:10:31.995Z,95328.94
2022-08-08T04:13:00.473Z,95323.16
2022-08-08T04:15:38.433Z,95332.16
2022-08-08T04:18:06.826Z,95342.81
2022-08-08T04:20:44.391Z,95333.47
2022-08-08T04:23:13.335Z,95341.97
2022-08-08T04:25:44.680Z,95340.03
2022-08-08T04:28:36.395Z,95347.69
2022-08-08T04:31:04.559Z,95349.25
2022-08-08T04:33:41.793Z,95349.84
2022-08-08T04:36:09.996Z,95355.91
2022-08-08T04:38:38.470Z,95358.69
2022-08-08T04:41:18.055Z,95357.06
2022-08-08T04:43:54.241Z,95360.38
2022-08-08T04:46:25.213Z,95372.16
2022-08-08T04:48:58.649Z,95373.22
2022-08-08T04:51:48.546Z,95374.34
2022-08-08T04:54:38.005Z,95365.53
2022-08-08T04:57:03.186Z,95375.66
2022-08-08T04:59:31.547Z,95380.59
2022-08-08T05:02:09.979Z,95377.28
2022-08-08T05:04:41.987Z,95387.44
2022-08-08T05:07:14.816Z,95380.13
2022-08-08T05:09:43.121Z,95387.56
2022-08-08T05:12:20.431Z,95380.72
2022-08-08T05:14:49.071Z,95387.00
2022-08-08T05:17:20.100Z,95384.00
2022-08-08T05:20:08.948Z,95389.50
2022-08-08T05:22:37.094Z,95385.69
2022-08-08T05:25:05.430Z,95384.66
2022-08-08T05:27:41.071Z,95394.28
2022-08-08T05:30:11.043Z,95400.16
2022-08-08T05:32:39.133Z,95400.75
2022-08-08T05:35:09.675Z,95394.25
2022-08-08T05:37:53.304Z,95396.47
2022-08-08T05:40:28.442Z,95402.84
2022-08-08T05:43:02.229Z,95396.63
2022-08-08T05:45:43.063Z,95396.16
2022-08-08T05:48:28.286Z,95398.94
2022-08-08T05:51:13.375Z,95403.59
2022-08-08T05:54:25.322Z,95398.97
2022-08-08T05:56:31.802Z,95403.72
2022-08-08T05:59:04.801Z,95408.97
2022-08-08T06:01:55.822Z,95406.78
2022-08-08T06:04:26.707Z,95407.16
2022-08-08T06:06:56.717Z,95409.13
2022-08-08T06:10:00.317Z,95410.00
2022-08-08T06:12:29.966Z,95419.09
2022-08-08T06:15:01.136Z,95412.25
2022-08-08T06:17:51.229Z,95405.94
2022-08-08T06:20:20.983Z,95412.84
2022-08-08T06:22:49.394Z,95413.13
2022-08-08T06:25:18.363Z,95413.41
2022-08-08T06:28:02.143Z,95412.81
2022-08-08T06:30:31.499Z,95413.06
2022-08-08T06:33:00.910Z,95421.25
2022-08-08T06:36:08.780Z,95428.88
2022-08-08T06:38:20.957Z,95427.19
2022-08-08T06:41:01.805Z,95433.13
2022-08-08T06:43:34.362Z,95431.13
2022-08-08T06:46:04.148Z,95434.59
2022-08-08T06:48:31.939Z,95431.19
2022-08-08T06:51:04.316Z,95437.66
2022-08-08T06:53:39.469Z,95436.09
2022-08-08T06:56:08.840Z,95445.53
2022-08-08T06:58:36.885Z,95457.13
2022-08-08T07:01:11.755Z,95453.50
2022-08-08T07:04:36.819Z,95448.03
2022-08-08T07:06:52.585Z,95449.03
2022-08-08T07:09:21.744Z,95446.03
2022-08-08T07:11:51.972Z,95450.44
2022-08-08T07:14:22.689Z,95449.94
2022-08-08T07:17:02.712Z,95447.09
2022-08-08T07:19:34.707Z,95442.28
2022-08-08T07:22:12.058Z,95448.06
2022-08-08T07:24:52.837Z,95448.78
2022-08-08T07:27:35.449Z,95446.13
2022-08-08T07:30:16.702Z,95458.03
2022-08-08T07:32:48.950Z,95445.75
2022-08-08T07:35:17.994Z,95462.03
2022-08-08T07:37:56.444Z,95459.22
2022-08-08T07:40:33.920Z,95461.44
2022-08-08T07:43:04.172Z,95461.88
2022-08-08T07:45:51.505Z,95462.63
2022-08-08T07:48:29.648Z,95464.03
2022-08-08T07:51:00.855Z,95467.13
2022-08-08T07:54:00.918Z,95466.00
2022-08-08T07:56:35.590Z,95461.59
2022-08-08T07:59:08.985Z,95470.75
2022-08-08T08:02:33.134Z,95467.66
2022-08-08T08:04:31.630Z,95477.41
2022-08-08T08:07:00.741Z,95479.25
2022-08-08T08:09:33.097Z,95474.13
2022-08-08T08:12:04.240Z,95471.06
2022-08-08T08:14:39.479Z,95478.84
2022-08-08T08:17:08.522Z,95483.78
2022-08-08T08:19:45.891Z,95483.50
2022-08-08T08:22:15.002Z,95475.03
2022-08-08T08:24:46.323Z,95486.44
2022-08-08T08:27:14.689Z,95481.78
2022-08-08T08:29:45.435Z,95488.38
2022-08-08T08:32:31.601Z,95482.38
2022-08-08T08:35:06.503Z,95491.47
2022-08-08T08:37:40.338Z,95478.34
2022-08-08T08:40:22.576Z,95488.69
2022-08-08T08:42:50.857Z,95482.47
2022-08-08T08:45:23.270Z,95487.47
2022-08-08T08:47:54.265Z,95482.78
2022-08-08T08:50:33.606Z,95487.66
2022-08-08T08:53:28.322Z,95491.66
2022-08-08T08:55:53.100Z,95488.16
2022-08-08T08:58:26.995Z,95486.91
2022-08-08T09:01:08.513Z,95490.69
2022-08-08T09:03:46.771Z,95492.09
2022-08-08T09:06:28.507Z,95493.34
2022-08-08T09:09:04.845Z,95492.16
2022-08-08T09:11:46.994Z,95490.56
2022-08-08T09:14:22.320Z,95483.91
2022-08-08T09:16:54.193Z,95496.06
2022-08-08T09:21:59.581Z,95496.41
2022-08-08T09:22:12.758Z,95491.41
2022-08-08T09:24:55.064Z,95500.22
2022-08-08T09:27:56.495Z,95495.91
2022-08-08T09:30:17.100Z,95498.56
2022-08-08T09:32:50.409Z,95499.47
2022-08-08T09:35:37.240Z,95501.53
2022-08-08T09:38:09.641Z,95494.63
2022-08-08T09:40:51.313Z,95489.88
2022-08-08T09:44:05.062Z,95489.69
2022-08-08T09:46:25.218Z,95481.53
2022-08-08T09:49:18.128Z,95489.56
2022-08-08T09:52:06.447Z,95491.03
2022-08-08T09:54:44.506Z,95492.34
2022-08-08T09:57:16.962Z,95486.13
2022-08-08T10:00:01.839Z,95482.09
2022-08-08T10:02:36.562Z,95484.56
2022-08-08T10:05:07.143Z,95479.03
2022-08-08T10:07:47.997Z,95482.72
2022-08-08T10:10:30.161Z,95485.09
2022-08-08T10:13:14.135Z,95480.28
2022-08-08T10:16:00.633Z,95479.22
2022-08-08T10:18:30.820Z,95476.44
2022-08-08T10:21:03.910Z,95476.56
2022-08-08T10:23:58.113Z,95477.94
2022-08-08T10:26:58.615Z,95473.97
2022-08-08T10:29:24.999Z,95472.97
2022-08-08T10:32:16.287Z,95467.44
2022-08-08T10:34:57.158Z,95467.72
2022-08-08T10:37:30.175Z,95465.28
2022-08-08T10:39:59.717Z,95471.88
2022-08-08T10:42:37.723Z,95460.41
2022-08-08T10:45:15.687Z,95457.91
2022-08-08T10:47:48.580Z,95458.69
2022-08-08T10:50:24.638Z,95468.38
2022-08-08T10:53:02.348Z,95464.81
2022-08-08T10:55:39.307Z,95466.47
2022-08-08T10:58:11.708Z,95459.56
2022-08-08T11:00:48.673Z,95459.84
2022-08-08T11:03:36.795Z,95453.06
2022-08-08T11:06:12.489Z,95469.22
2022-08-08T11:08:50.137Z,95466.09
2022-08-08T11:12:00.224Z,95460.03
2022-08-08T11:14:15.855Z,95459.22
2022-08-08T11:16:46.847Z,95457.41
2022-08-08T11:19:15.670Z,95463.69
2022-08-08T11:21:53.853Z,95449.16
2022-08-08T11:24:26.804Z,95455.84
2022-08-08T11:26:58.524Z,95461.53
2022-08-08T11:29:41.953Z,95454.53
2022-08-08T11:32:19.155Z,95452.09
2022-08-08T11:38:36.666Z,95457.22
2022-08-08T11:40:26.455Z,95454.09
2022-08-08T11:42:55.854Z,95456.88
2022-08-08T11:45:25.099Z,95454.03
2022-08-08T11:50:39.906Z,95440.66
2022-08-08T11:53:13.900Z,95449.66
2022-08-08T11:58:45.736Z,95442.19
2022-08-08T12:01:43.145Z,95440.47
2022-08-08T12:04:17.547Z,95444.63
2022-08-08T12:07:16.767Z,95439.94
2022-08-08T12:10:02.862Z,95432.56
2022-08-08T12:12:45.935Z,95431.44
2022-08-08T12:15:42.351Z,95435.22
2022-08-08T12:18:24.301Z,95432.78
2022-08-08T12:20:54.931Z,95428.06
2022-08-08T12:23:43.817Z,95420.75
2022-08-08T12:26:27.273Z,95432.13
2022-08-08T12:28:56.929Z,95425.69
2022-08-08T12:31:39.082Z,95430.47
2022-08-08T12:34:36.166Z,95422.66
2022-08-08T12:37:05.689Z,95425.47
2022-08-08T12:39:59.747Z,95427.34
2022-08-08T12:42:33.772Z,95430.94
2022-08-08T12:45:20.210Z,95427.91
2022-08-08T12:48:10.204Z,95423.25
2022-08-08T12:50:51.984Z,95416.38
2022-08-08T12:53:24.683Z,95426.97
2022-08-08T12:56:19.849Z,95420.66
2022-08-08T12:58:47.298Z,95416.13
2022-08-08T13:01:15.350Z,95408.78
2022-08-08T13:03:51.947Z,95413.34
2022-08-08T13:06:21.339Z,95409.25
2022-08-08T13:08:56.394Z,95415.78
2022-08-08T13:11:28.695Z,95413.13
2022-08-08T13:14:15.457Z,95416.31
2022-08-08T13:16:43.925Z,95418.84
2022-08-08T13:19:20.150Z,95405.75
2022-08-08T13:21:55.481Z,95407.88
2022-08-08T13:24:42.423Z,95405.16
2022-08-08T13:27:15.911Z,95397.09
2022-08-08T13:29:51.611Z,95404.34
2022-08-08T13:32:23.815Z,95393.97
2022-08-08T13:34:54.633Z,95401.56
2022-08-08T13:37:51.640Z,95393.16
2022-08-08T13:40:18.086Z,95393.78
2022-08-08T13:42:55.746Z,95392.66
2022-08-08T13:45:24.274Z,95390.91
2022-08-08T13:47:58.059Z,95392.31
2022-08-08T13:50:36.644Z,95396.94
2022-08-08T13:53:24.730Z,95395.50
2022-08-08T13:56:01.298Z,95395.00
2022-08-08T13:58:30.084Z,95401.81
2022-08-08T14:00:57.875Z,95399.16
2022-08-08T14:03:47.167Z,95393.53
2022-08-08T14:06:32.675Z,95389.75
2022-08-08T14:09:24.581Z,95391.88
2022-08-08T14:11:51.303Z,95387.38
2022-08-08T14:14:21.256Z,95387.50
2022-08-08T14:16:54.147Z,95385.66
2022-08-08T14:19:57.029Z,95379.28
2022-08-08T14:22:22.740Z,95385.91
2022-08-08T14:24:54.821Z,95381.41
2022-08-08T14:27:28.896Z,95380.16
2022-08-08T14:30:02.849Z,95379.69
2022-08-08T14:32:32.092Z,95385.84
2022-08-08T14:35:05.235Z,95390.88
2022-08-08T14:37:43.218Z,95386.69
2022-08-08T14:40:29.929Z,95384.91
2022-08-08T14:43:01.590Z,95389.25
2022-08-08T14:46:01.389Z,95372.72
2022-08-08T14:48:34.054Z,95386.88
2022-08-08T14:51:07.426Z,95383.41
2022-08-08T14:53:55.959Z,95387.53
2022-08-08T14:56:26.299Z,95379.56
2022-08-08T14:58:54.598Z,95380.09
2022-08-08T15:01:27.972Z,95383.09
2022-08-08T15:04:08.963Z,95385.59
2022-08-08T15:06:37.293Z,95382.81
2022-08-08T15:09:05.250Z,95389.34
2022-08-08T15:11:39.336Z,95389.88
2022-08-08T15:14:14.516Z,95383.28
2022-08-08T15:16:44.202Z,95388.28
2022-08-08T15:19:14.901Z,95387.41
2022-08-08T15:21:44.796Z,95381.88
2022-08-08T15:24:14.067Z,95383.63
2022-08-08T15:26:52.422Z,95384.88
2022-08-08T15:29:22.508Z,95384.09
2022-08-08T15:32:18.926Z,95381.84
2022-08-08T15:34:39.823Z,95381.16
2022-08-08T15:37:07.768Z,95390.94
2022-08-08T15:39:38.043Z,95390.22
2022-08-08T15:42:13.072Z,95384.72
2022-08-08T15:44:46.112Z,95385.97
2022-08-08T15:47:15.685Z,95383.03
2022-08-08T15:49:48.041Z,95384.50
2022-08-08T15:52:17.562Z,95377.56
2022-08-08T15:54:51.378Z,95380.91
2022-08-08T15:57:22.360Z,95384.16
2022-08-08T16:00:17.904Z,95380.69
2022-08-08T16:02:50.407Z,95376.72
2022-08-08T16:05:20.717Z,95380.13
2022-08-08T16:07:52.030Z,95376.97
2022-08-08T16:13:13.955Z,95369.72
2022-08-08T16:13:34.499Z,95373.81
2022-08-08T16:16:09.633Z,95373.06
2022-08-08T16:18:53.154Z,95370.81
2022-08-08T16:21:27.824Z,95379.66
2022-08-08T16:23:56.983Z,95379.34
2022-08-08T16:26:33.711Z,95381.00
2022-08-08T16:29:08.820Z,95379.53
2022-08-08T16:31:40.341Z,95376.31
2022-08-08T16:34:08.937Z,95379.22
2022-08-08T16:36:36.928Z,95378.72
2022-08-08T16:39:16.870Z,95379.91
2022-08-08T16:41:54.010Z,95382.34
2022-08-08T16:44:34.206Z,95386.47
2022-08-08T16:47:21.841Z,95386.31
2022-08-08T16:50:12.674Z,95391.38
2022-08-08T16:55:04.483Z,95387.13
2022-08-08T16:55:52.952Z,95388.94
2022-08-08T16:58:20.327Z,95387.44
2022-08-08T17:00:51.498Z,95390.72
2022-08-08T17:03:24.846Z,95395.31
2022-08-08T17:06:02.864Z,95386.31
2022-08-08T17:08:30.777Z,95396.59
2022-08-08T17:11:10.754Z,95396.91
2022-08-08T17:13:41.346Z,95398.84
2022-08-08T17:16:28.668Z,95398.53
2022-08-08T17:18:56.693Z,95407.69
2022-08-08T17:21:26.456Z,95404.41
2022-08-08T17:23:58.974Z,95400.81
2022-08-08T17:26:30.744Z,95406.00
2022-08-08T17:28:58.862Z,95407.97
2022-08-08T17:31:44.108Z,95407.63
2022-08-08T17:34:48.987Z,95409.88
2022-08-08T17:37:06.749Z,95412.34
2022-08-08T17:40:04.375Z,95421.81
2022-08-08T17:42:25.886Z,95424.94
2022-08-08T17:44:54.400Z,95423.94
2022-08-08T17:47:28.119Z,95429.13
2022-08-08T17:50:01.096Z,95442.56
2022-08-08T17:52:30.803Z,95434.75
2022-08-08T17:54:58.579Z,95437.88
2022-08-08T17:57:28.852Z,95446.72
2022-08-08T18:00:03.632Z,95452.59
2022-08-08T18:02:33.301Z,95454.66
2022-08-08T18:05:04.517Z,95455.97
2022-08-08T18:08:04.011Z,95455.25
2022-08-08T18:10:20.765Z,95456.38
2022-08-08T18:13:01.801Z,95454.53
2022-08-08T18:15:31.473Z,95463.63
2022-08-08T18:18:09.062Z,95455.09
2022-08-08T18:20:55.431Z,95468.59
2022-08-08T18:23:27.647Z,95464.13
2022-08-08T18:25:56.449Z,95465.56
2022-08-08T18:31:39.167Z,95464.50
2022-08-08T18:34:11.534Z,95464.19
2022-08-08T18:36:54.862Z,95464.19
2022-08-08T18:39:27.503Z,95463.50
2022-08-08T18:42:02.793Z,95468.38
2022-08-08T18:44:33.153Z,95475.47
2022-08-08T18:47:03.467Z,95469.91
2022-08-08T18:49:57.767Z,95472.75
2022-08-08T18:52:22.546Z,95471.66
2022-08-08T18:54:59.558Z,95473.94
2022-08-08T18:57:41.665Z,95481.44
2022-08-08T19:00:15.962Z,95479.03
2022-08-08T19:02:48.372Z,95489.00
2022-08-08T19:05:30.263Z,95495.66
2022-08-08T19:08:09.207Z,95489.22
2022-08-08T19:10:37.514Z,95498.00
2022-08-08T19:13:10.717Z,95490.66
2022-08-08T19:15:48.561Z,95495.41
2022-08-08T19:18:30.750Z,95497.66
2022-08-08T19:21:02.854Z,95502.44
2022-08-08T19:23:30.505Z,95500.72
2022-08-08T19:26:29.309Z,95510.41
2022-08-08T19:28:50.881Z,95507.41
2022-08-08T19:31:19.954Z,95511.00
2022-08-08T19:34:05.055Z,95509.44
2022-08-08T19:36:39.518Z,95517.00
2022-08-08T19:39:13.172Z,95529.47
2022-08-08T19:41:42.802Z,95523.81
2022-08-08T19:44:12.679Z,95523.88
2022-08-08T19:46:41.091Z,95524.94
2022-08-08T19:49:09.695Z,95520.75
2022-08-08T19:51:41.618Z,95520.28
2022-08-08T19:54:11.382Z,95529.84
2022-08-08T19:56:41.337Z,95525.56
2022-08-08T19:59:10.153Z,95520.59
2022-08-08T20:02:00.917Z,95520.69
2022-08-08T20:04:29.662Z,95523.97
2022-08-08T20:07:03.484Z,95528.22
2022-08-08T20:09:36.311Z,95526.63
2022-08-08T20:12:14.029Z,95518.09
2022-08-08T20:14:51.553Z,95517.59
2022-08-08T20:17:28.051Z,95523.25
2022-08-08T20:19:56.961Z,95514.78
2022-08-08T20:22:30.553Z,95521.69
2022-08-08T20:25:00.295Z,95528.13
2022-08-08T20:27:43.855Z,95527.88
2022-08-08T20:30:52.404Z,95530.50
2022-08-08T20:33:04.773Z,95525.88
2022-08-08T20:35:58.959Z,95523.97
2022-08-08T20:38:32.140Z,95526.97
2022-08-08T20:41:05.384Z,95528.13
2022-08-08T20:43:43.774Z,95525.94
2022-08-08T20:46:16.579Z,95534.25
2022-08-08T20:48:45.061Z,95523.78
2022-08-08T20:51:12.845Z,95526.34
2022-08-08T20:53:59.034Z,95526.91
2022-08-08T20:56:35.823Z,95529.72
2022-08-08T20:59:17.068Z,95534.50
2022-08-08T21:02:06.413Z,95535.91
2022-08-08T21:04:36.899Z,95532.91
2022-08-08T21:07:08.495Z,95531.81
2022-08-08T21:10:01.354Z,95529.66
2022-08-08T21:12:35.969Z,95523.28
2022-08-08T21:15:07.051Z,95526.31
2022-08-08T21:17:35.671Z,95529.34
2022-08-08T21:20:05.034Z,95527.19
2022-08-08T21:22:32.721Z,95528.56
2022-08-08T21:25:02.171Z,95531.63
2022-08-08T21:28:05.700Z,95527.81
2022-08-08T21:30:21.917Z,95532.47
2022-08-08T21:32:52.313Z,95532.25
2022-08-08T21:36:13.559Z,95523.50
2022-08-08T21:38:16.806Z,95537.03
2022-08-08T21:40:55.542Z,95525.72
2022-08-08T21:43:24.558Z,95524.63
2022-08-08T21:48:04.261Z,95530.09
2022-08-08T21:48:44.554Z,95521.31
2022-08-08T21:52:09.749Z,95514.97
2022-08-08T21:54:34.835Z,95516.13
2022-08-08T21:56:55.156Z,95524.72
2022-08-08T21:59:22.978Z,95520.88
2022-08-08T22:01:52.051Z,95523.63
2022-08-08T22:04:24.766Z,95521.44
2022-08-08T22:06:53.504Z,95520.38
2022-08-08T22:09:26.802Z,95514.59
2022-08-08T22:12:08.683Z,95516.22
2022-08-08T22:14:37.344Z,95511.84
2022-08-08T22:17:05.265Z,95508.50
2022-08-08T22:20:11.632Z,95511.53
2022-08-08T22:22:28.657Z,95517.03
2022-08-08T22:24:56.923Z,95514.56
2022-08-08T22:27:38.571Z,95520.94
2022-08-08T22:30:14.868Z,95506.31
2022-08-08T22:32:57.341Z,95516.00
2022-08-08T22:36:04.833Z,95511.59
2022-08-08T22:38:17.640Z,95507.47
2022-08-08T22:40:53.571Z,95511.03
2022-08-08T22:43:22.808Z,95508.53
2022-08-08T22:45:52.740Z,95512.94
2022-08-08T22:48:21.768Z,95509.91
2022-08-08T22:50:50.252Z,95509.06
2022-08-08T22:54:31.666Z,95512.91
2022-08-08T22:56:07.004Z,95514.59
2022-08-08T22:58:36.225Z,95506.31
2022-08-08T23:01:30.142Z,95511.50
2022-08-08T23:03:56.188Z,95512.13
2022-08-08T23:06:24.944Z,95505.47
2022-08-08T23:08:55.737Z,95501.34
2022-08-08T23:11:57.947Z,95506.06
2022-08-08T23:14:18.955Z,95506.59
2022-08-08T23:16:57.910Z,95504.38
2022-08-08T23:19:27.386Z,95516.25
2022-08-08T23:21:58.992Z,95508.28
2022-08-08T23:24:27.389Z,95502.78
2022-08-08T23:27:05.138Z,95509.09
2022-08-08T23:29:34.534Z,95503.34
2022-08-08T23:32:04.408Z,95507.75
2022-08-08T23:34:32.705Z,95501.69
2022-08-08T23:37:02.607Z,95497.28
2022-08-08T23:39:42.100Z,95505.56
2022-08-08T23:42:17.147Z,95500.31
2022-08-08T23:44:46.324Z,95499.75
2022-08-08T23:49:01.955Z,95498.13
2022-08-08T23:50:05.362Z,95496.72
2022-08-08T23:52:34.040Z,95497.31
2022-08-08T23:55:14.054Z,95492.91
2022-08-08T23:57:52.919Z,95497.28
